Decoded Metar for KMHS (MOUNT SHASTA in CA, USA) (IATA:MHS) | Meteo·Mobile Aviation Weather
aviador You're here:

KMHS Decoded Metar

MOUNT SHASTA in CA, USA
Report Time2018-12-15 15:56:00
UTC Time2018-12-15 16:37:57
Flight Rules vfr VFR
WindCalm
Visibility9999 m
Phenomena:N/A
Clouds:Few 120 Hf
Expected CloudBase > 400 ft AGL from Temp-Dew spread
CeilingNone
Temp00°C (ISA -8)
Dew Point-1°C (93% RH)
AAT-2.1°C
QNH1018 hPa
Density Alt2,490 ft
Elevation3,537 ft
Report Wrong Elevation
Raw Report
KMHS 151556Z AUTO 00000KT 10SM FEW120 00/M01 A3005 RMK AO2 SLP210
T00001011=

Extra information for KMHS:More info

Metar Taf Metar & Taf Last 4 Metars F.Rules Stats Wind Profile Meteogram Temp Stats Airport Information Weather charts Add Link Nearby VenuesMetar ALERT Operation Metar Decoded Social comments

AIRNAV info for KMHS